createdAt,value
2017-12-01T00:01:12.673Z,35.70
2017-12-01T00:03:40.301Z,29.05
2017-12-01T00:06:07.969Z,29.52
2017-12-01T00:08:36.371Z,33.45
2017-12-01T00:14:34.758Z,35.38
2017-12-01T00:17:02.419Z,34.17
2017-12-01T00:19:30.050Z,33.33
2017-12-01T00:21:57.925Z,29.98
2017-12-01T00:24:25.605Z,24.83
2017-12-01T00:26:53.238Z,34.97
2017-12-01T00:29:21.667Z,24.12
2017-12-01T00:31:49.364Z,21.40
2017-12-01T00:34:16.987Z,30.02
2017-12-01T00:36:44.654Z,27.33
2017-12-01T00:39:13.034Z,25.65
2017-12-01T00:41:40.697Z,32.88
2017-12-01T00:44:08.465Z,24.15
2017-12-01T00:46:36.093Z,28.08
2017-12-01T00:49:03.746Z,34.28
2017-12-01T00:51:31.371Z,24.58
2017-12-01T00:53:59.028Z,25.62
2017-12-01T00:56:26.654Z,24.37
2017-12-01T00:58:54.277Z,32.90
2017-12-01T01:01:22.698Z,31.27
2017-12-01T01:03:50.336Z,29.83
2017-12-01T01:06:17.994Z,25.42
2017-12-01T01:08:45.626Z,27.55
2017-12-01T01:11:13.242Z,29.55
2017-12-01T01:13:40.903Z,29.10
2017-12-01T01:16:08.811Z,24.10
2017-12-01T01:18:36.473Z,27.17
2017-12-01T01:21:04.853Z,26.45
2017-12-01T01:23:32.474Z,24.20
2017-12-01T01:26:00.135Z,30.33
2017-12-01T01:28:28.673Z,26.27
2017-12-01T01:30:56.335Z,30.58
2017-12-01T01:33:23.954Z,36.90
2017-12-01T01:35:51.585Z,28.83
2017-12-01T01:38:19.314Z,27.87
2017-12-01T01:40:46.938Z,38.55
2017-12-01T01:43:14.596Z,42.50
2017-12-01T01:45:42.235Z,41.60
2017-12-01T01:48:10.626Z,45.15
2017-12-01T01:50:38.395Z,30.35
2017-12-01T01:53:06.049Z,31.62
2017-12-01T01:55:33.698Z,35.17
2017-12-01T01:58:01.327Z,41.80
2017-12-01T02:00:28.959Z,32.90
2017-12-01T02:02:56.609Z,30.67
2017-12-01T02:05:24.246Z,33.05
2017-12-01T02:07:51.906Z,39.95
2017-12-01T02:10:19.871Z,40.63
2017-12-01T02:12:47.507Z,40.35
2017-12-01T02:15:15.171Z,46.13
2017-12-01T02:17:42.815Z,45.58
2017-12-01T02:20:10.473Z,38.13
2017-12-01T02:22:38.199Z,29.77
2017-12-01T02:25:05.839Z,42.03
2017-12-01T02:27:33.498Z,35.47
2017-12-01T02:30:01.129Z,37.67
2017-12-01T02:32:28.837Z,38.40
2017-12-01T02:34:57.226Z,25.67
2017-12-01T02:37:24.853Z,27.60
2017-12-01T02:39:53.286Z,25.35
2017-12-01T02:42:20.929Z,27.50
2017-12-01T02:44:48.765Z,25.73
2017-12-01T02:47:16.380Z,29.70
2017-12-01T02:49:44.013Z,27.35
2017-12-01T02:52:12.425Z,28.58
2017-12-01T02:54:40.059Z,24.60
2017-12-01T02:57:07.902Z,18.17
2017-12-01T02:59:35.535Z,26.87
2017-12-01T03:02:03.183Z,26.50
2017-12-01T03:04:30.846Z,23.80
2017-12-01T03:06:58.665Z,26.98
2017-12-01T03:09:27.092Z,28.40
2017-12-01T03:11:54.725Z,29.98
2017-12-01T03:14:22.352Z,27.15
2017-12-01T03:16:50.001Z,24.98
2017-12-01T03:19:17.629Z,25.35
2017-12-01T03:21:45.575Z,27.10
2017-12-01T03:24:13.194Z,23.80
2017-12-01T03:26:40.813Z,21.67
2017-12-01T03:29:08.490Z,23.00
2017-12-01T03:31:36.117Z,27.90
2017-12-01T03:34:03.779Z,32.65
2017-12-01T03:36:31.406Z,36.47
2017-12-01T03:38:59.026Z,41.88
2017-12-01T03:41:26.688Z,34.50
2017-12-01T03:43:54.320Z,43.60
2017-12-01T03:46:21.983Z,26.23
2017-12-01T03:48:49.699Z,35.70
2017-12-01T03:51:17.321Z,30.85
2017-12-01T03:53:45.744Z,29.87
2017-12-01T03:56:13.387Z,33.90
2017-12-01T03:58:41.055Z,32.58
2017-12-01T04:01:08.797Z,27.45
2017-12-01T04:03:36.426Z,35.63
2017-12-01T04:06:04.090Z,36.97
2017-12-01T04:08:31.721Z,27.15
2017-12-01T04:10:59.398Z,35.75
2017-12-01T04:13:27.027Z,38.55
2017-12-01T04:15:54.689Z,29.52
2017-12-01T04:18:22.360Z,41.55
2017-12-01T04:20:49.998Z,35.35
2017-12-01T04:23:18.574Z,39.47
2017-12-01T04:25:46.967Z,29.02
2017-12-01T04:28:14.666Z,24.90
2017-12-01T04:30:42.326Z,26.37
2017-12-01T04:33:09.979Z,31.92
2017-12-01T04:35:38.468Z,36.67
2017-12-01T04:38:06.094Z,32.47
2017-12-01T04:40:34.502Z,33.35
2017-12-01T04:43:02.163Z,33.22
2017-12-01T04:45:29.792Z,30.48
2017-12-01T04:47:57.454Z,26.05
2017-12-01T04:50:25.083Z,30.05
2017-12-01T04:52:52.739Z,27.00
2017-12-01T04:55:20.362Z,25.95
2017-12-01T04:57:48.054Z,27.55
2017-12-01T05:00:15.712Z,23.85
2017-12-01T05:02:43.334Z,27.02
2017-12-01T05:05:10.977Z,24.45
2017-12-01T05:07:38.767Z,26.20
2017-12-01T05:10:07.146Z,23.45
2017-12-01T05:12:35.525Z,28.70
2017-12-01T05:15:06.742Z,32.33
2017-12-01T05:17:34.853Z,26.12
2017-12-01T05:20:02.484Z,23.98
2017-12-01T05:22:30.123Z,29.77
2017-12-01T05:24:57.789Z,25.73
2017-12-01T05:27:25.418Z,25.08
2017-12-01T05:29:53.561Z,26.00
2017-12-01T05:32:21.224Z,29.55
2017-12-01T05:34:48.858Z,30.77
2017-12-01T05:37:17.634Z,31.02
2017-12-01T05:39:46.169Z,27.30
2017-12-01T05:42:13.820Z,22.00
2017-12-01T05:44:41.490Z,31.08
2017-12-01T05:47:09.215Z,34.35
2017-12-01T05:49:36.877Z,30.12
2017-12-01T05:52:04.505Z,31.90
2017-12-01T05:54:32.944Z,26.08
2017-12-01T05:57:00.571Z,27.17
2017-12-01T05:59:28.267Z,27.45
2017-12-01T06:01:55.931Z,33.65
2017-12-01T06:04:23.562Z,28.05
2017-12-01T06:06:51.210Z,27.10
2017-12-01T06:09:18.842Z,25.95
2017-12-01T06:11:47.333Z,34.10
2017-12-01T06:14:14.987Z,35.42
2017-12-01T06:16:42.694Z,35.70
2017-12-01T06:19:10.376Z,72.93
2017-12-01T06:21:38.415Z,54.88
2017-12-01T06:24:06.913Z,46.20
2017-12-01T06:26:34.534Z,46.97
2017-12-01T06:29:02.201Z,45.63
2017-12-01T06:31:29.854Z,36.53
2017-12-01T06:33:57.482Z,41.90
2017-12-01T06:36:25.123Z,31.87
2017-12-01T06:38:52.742Z,27.48
2017-12-01T06:41:21.138Z,24.85
2017-12-01T06:43:48.915Z,25.55
2017-12-01T06:46:16.542Z,29.40
2017-12-01T06:48:45.010Z,33.88
2017-12-01T06:51:12.634Z,28.45
2017-12-01T06:53:40.263Z,34.08
2017-12-01T06:56:08.722Z,35.22
2017-12-01T06:58:36.341Z,37.75
2017-12-01T07:01:04.015Z,36.90
2017-12-01T07:03:31.638Z,26.33
2017-12-01T07:05:59.372Z,35.53
2017-12-01T07:08:27.030Z,34.20
2017-12-01T07:10:54.653Z,37.80
2017-12-01T07:13:22.826Z,38.45
2017-12-01T07:15:50.441Z,33.92
2017-12-01T07:18:18.126Z,31.98
2017-12-01T07:20:45.807Z,34.83
2017-12-01T07:23:14.362Z,36.28
2017-12-01T07:25:42.020Z,26.75
2017-12-01T07:28:09.667Z,29.45
2017-12-01T07:30:38.217Z,31.33
2017-12-01T07:33:05.894Z,29.75
2017-12-01T07:35:33.543Z,34.65
2017-12-01T07:38:01.221Z,34.60
2017-12-01T07:40:28.854Z,32.95
2017-12-01T07:42:56.473Z,29.08
2017-12-01T07:45:30.560Z,28.08
2017-12-01T07:47:58.275Z,26.92
2017-12-01T07:50:25.935Z,36.67
2017-12-01T07:52:53.572Z,33.10
2017-12-01T07:55:21.211Z,29.48
2017-12-01T07:57:48.866Z,37.10
2017-12-01T08:00:16.514Z,35.72
2017-12-01T08:02:44.174Z,34.47
2017-12-01T08:05:11.798Z,42.50
2017-12-01T08:07:39.602Z,35.60
2017-12-01T08:10:08.166Z,29.63
2017-12-01T08:12:36.598Z,22.87
2017-12-01T08:15:04.268Z,29.48
2017-12-01T08:17:33.542Z,32.38
2017-12-01T08:20:01.174Z,28.15
2017-12-01T08:22:40.846Z,27.13
2017-12-01T08:25:33.816Z,27.05
2017-12-01T08:28:01.445Z,29.92
2017-12-01T08:30:29.158Z,28.55
2017-12-01T08:32:56.812Z,21.77
2017-12-01T08:35:25.203Z,20.25
2017-12-01T08:37:52.865Z,18.92
2017-12-01T08:40:20.564Z,21.95
2017-12-01T08:42:48.992Z,24.17
2017-12-01T08:45:16.635Z,20.08
2017-12-01T08:47:44.268Z,22.95
2017-12-01T08:50:11.930Z,20.95
2017-12-01T08:52:39.707Z,23.50
2017-12-01T08:55:07.421Z,23.05
2017-12-01T08:57:35.043Z,25.62
2017-12-01T09:00:02.695Z,30.55
2017-12-01T09:02:30.340Z,25.60
2017-12-01T09:04:57.960Z,31.23
2017-12-01T09:07:26.342Z,30.15
2017-12-01T09:09:54.274Z,25.35
2017-12-01T09:12:22.659Z,24.33
2017-12-01T09:14:50.274Z,22.30
2017-12-01T09:17:18.845Z,18.67
2017-12-01T09:19:47.230Z,18.35
2017-12-01T09:22:14.949Z,20.00
2017-12-01T09:24:42.590Z,20.08
2017-12-01T09:27:10.220Z,17.00
2017-12-01T09:29:37.880Z,20.85
2017-12-01T09:32:05.510Z,22.73
2017-12-01T09:34:33.146Z,17.23
2017-12-01T09:37:00.802Z,20.37
2017-12-01T09:39:29.010Z,21.70
2017-12-01T09:41:57.449Z,20.33
2017-12-01T09:44:25.073Z,21.05
2017-12-01T09:46:52.708Z,17.30
2017-12-01T09:49:20.365Z,20.23
2017-12-01T09:51:48.193Z,17.60
2017-12-01T09:54:15.845Z,20.65
2017-12-01T09:56:43.470Z,20.67
2017-12-01T09:59:13.694Z,20.37
2017-12-01T10:01:41.356Z,20.70
2017-12-01T10:04:08.986Z,20.02
2017-12-01T10:06:36.639Z,18.70
2017-12-01T10:09:04.260Z,18.62
2017-12-01T10:11:31.890Z,18.00
2017-12-01T10:14:00.451Z,19.42
2017-12-01T10:16:28.843Z,21.17
2017-12-01T10:18:56.512Z,21.35
2017-12-01T10:21:24.133Z,19.15
2017-12-01T10:23:51.758Z,19.95
2017-12-01T10:26:20.179Z,21.60
2017-12-01T10:28:47.825Z,22.08
2017-12-01T10:31:15.483Z,22.55
2017-12-01T10:33:43.111Z,20.52
2017-12-01T10:36:10.759Z,20.65
2017-12-01T10:38:38.398Z,21.83
2017-12-01T10:41:06.044Z,19.75
2017-12-01T10:43:33.689Z,22.30
2017-12-01T10:46:01.390Z,22.17
2017-12-01T10:48:29.039Z,22.02
2017-12-01T10:50:57.434Z,20.80
2017-12-01T10:53:25.094Z,23.48
2017-12-01T10:55:52.750Z,18.23
2017-12-01T10:58:20.377Z,22.02
2017-12-01T11:00:48.062Z,21.15
2017-12-01T11:03:15.687Z,22.05
2017-12-01T11:05:43.309Z,24.05
2017-12-01T11:08:10.998Z,21.77
2017-12-01T11:10:38.779Z,22.23
2017-12-01T11:13:06.439Z,21.60
2017-12-01T11:15:34.843Z,24.83
2017-12-01T11:18:02.458Z,29.05
2017-12-01T11:20:30.157Z,25.15
2017-12-01T11:22:57.893Z,26.90
2017-12-01T11:25:25.545Z,24.35
2017-12-01T11:27:53.175Z,26.17
2017-12-01T11:30:20.817Z,22.87
2017-12-01T11:32:48.718Z,23.15
2017-12-01T11:35:16.397Z,23.45
2017-12-01T11:37:44.083Z,25.98
2017-12-01T11:40:11.703Z,26.02
2017-12-01T11:42:39.378Z,26.40
2017-12-01T11:45:07.063Z,28.10
2017-12-01T11:47:35.494Z,26.65
2017-12-01T11:50:03.183Z,26.37
2017-12-01T11:52:31.581Z,25.08
2017-12-01T11:54:59.375Z,26.73
2017-12-01T11:57:27.027Z,26.37
2017-12-01T11:59:54.657Z,27.08
2017-12-01T12:02:22.303Z,27.73
2017-12-01T12:04:49.965Z,25.73
2017-12-01T12:07:17.582Z,27.15
2017-12-01T12:09:45.668Z,24.73
2017-12-01T12:12:14.409Z,28.65
2017-12-01T12:14:42.072Z,27.98
2017-12-01T12:17:09.779Z,26.73
2017-12-01T12:19:37.401Z,30.33
2017-12-01T12:22:05.847Z,27.83
2017-12-01T12:24:33.453Z,28.70
2017-12-01T12:27:01.095Z,27.27
2017-12-01T12:29:28.806Z,27.15
2017-12-01T12:31:57.248Z,27.50
2017-12-01T12:34:24.903Z,25.85
2017-12-01T12:36:52.811Z,27.92
2017-12-01T12:39:20.469Z,27.30
2017-12-01T12:41:48.257Z,27.58
2017-12-01T12:44:15.921Z,26.90
2017-12-01T12:46:44.315Z,29.83
2017-12-01T12:49:11.944Z,28.08
2017-12-01T12:51:39.737Z,32.85
2017-12-01T12:54:07.365Z,29.42
2017-12-01T12:56:35.690Z,28.58
2017-12-01T12:59:04.082Z,32.25
2017-12-01T13:01:31.798Z,30.58
2017-12-01T13:04:00.208Z,31.17
2017-12-01T13:06:27.915Z,26.70
2017-12-01T13:08:56.342Z,28.15
2017-12-01T13:11:23.960Z,26.60
2017-12-01T13:13:51.577Z,25.85
2017-12-01T13:16:20.029Z,23.67
2017-12-01T13:18:48.452Z,23.85
2017-12-01T13:21:16.109Z,22.87
2017-12-01T13:23:43.730Z,22.42
2017-12-01T13:26:11.350Z,23.12
2017-12-01T13:28:39.787Z,22.85
2017-12-01T13:31:09.004Z,20.85
2017-12-01T13:33:36.693Z,23.45
2017-12-01T13:36:04.313Z,21.33
2017-12-01T13:38:31.922Z,26.40
2017-12-01T13:41:00.333Z,25.02
2017-12-01T13:43:27.979Z,24.50
2017-12-01T13:45:55.654Z,25.70
2017-12-01T13:48:23.301Z,25.65
2017-12-01T13:50:50.981Z,25.83
2017-12-01T13:53:18.847Z,29.20
2017-12-01T13:55:46.494Z,29.83
2017-12-01T13:58:14.155Z,29.40
2017-12-01T14:00:41.775Z,35.42
2017-12-01T14:03:10.216Z,38.63
2017-12-01T14:05:37.921Z,30.98
2017-12-01T14:08:05.565Z,35.40
2017-12-01T14:10:33.272Z,34.40
2017-12-01T14:13:00.925Z,34.50
2017-12-01T14:15:29.437Z,30.88
2017-12-01T14:17:57.113Z,38.55
2017-12-01T14:20:24.826Z,35.40
2017-12-01T14:22:52.491Z,36.58
2017-12-01T14:25:20.183Z,38.72
2017-12-01T14:27:48.809Z,33.92
2017-12-01T14:30:16.459Z,30.02
2017-12-01T14:32:48.283Z,33.15
2017-12-01T14:35:16.964Z,29.12
2017-12-01T14:37:44.696Z,33.20
2017-12-01T14:40:13.482Z,30.90
2017-12-01T14:42:41.179Z,33.60
2017-12-01T14:45:10.616Z,38.33
2017-12-01T14:47:38.329Z,28.38
2017-12-01T14:50:06.705Z,25.00
2017-12-01T14:52:34.325Z,24.02
2017-12-01T14:55:02.027Z,27.17
2017-12-01T14:57:29.786Z,27.67
2017-12-01T14:59:58.385Z,23.65
2017-12-01T15:02:25.998Z,21.40
2017-12-01T15:04:53.686Z,23.75
2017-12-01T15:07:22.168Z,26.70
2017-12-01T15:09:49.804Z,24.02
2017-12-01T15:12:18.378Z,22.73
2017-12-01T15:14:45.997Z,20.62
2017-12-01T15:17:13.618Z,23.35
2017-12-01T15:19:41.292Z,22.67
2017-12-01T15:22:08.909Z,24.55
2017-12-01T15:24:38.042Z,24.45
2017-12-01T15:27:06.431Z,21.10
2017-12-01T15:29:34.062Z,21.35
2017-12-01T15:32:01.711Z,25.40
2017-12-01T15:34:29.385Z,21.30
2017-12-01T15:36:57.042Z,18.85
2017-12-01T15:39:24.672Z,20.70
2017-12-01T15:41:52.322Z,23.38
2017-12-01T15:44:19.978Z,19.42
2017-12-01T15:46:47.599Z,20.98
2017-12-01T15:49:15.289Z,21.30
2017-12-01T15:51:42.929Z,23.35
2017-12-01T15:54:10.538Z,28.08
2017-12-01T15:56:38.218Z,22.98
2017-12-01T15:59:05.832Z,27.02
2017-12-01T16:01:33.538Z,27.30
2017-12-01T16:04:01.153Z,30.27
2017-12-01T16:06:28.770Z,33.55
2017-12-01T16:08:56.414Z,27.80
2017-12-01T16:11:24.043Z,33.92
2017-12-01T16:13:51.971Z,31.17
2017-12-01T16:16:19.808Z,37.13
2017-12-01T16:18:47.431Z,27.75
2017-12-01T16:21:15.257Z,21.75
2017-12-01T16:23:42.888Z,21.23
2017-12-01T16:26:11.302Z,22.55
2017-12-01T16:28:38.922Z,19.45
2017-12-01T16:31:06.542Z,18.98
2017-12-01T16:33:34.950Z,20.10
2017-12-01T16:36:02.558Z,19.45
2017-12-01T16:38:30.230Z,20.55
2017-12-01T16:40:57.938Z,21.95
2017-12-01T16:43:25.593Z,18.92
2017-12-01T16:45:54.003Z,22.05
2017-12-01T16:48:21.697Z,19.67
2017-12-01T16:50:50.116Z,22.00
2017-12-01T16:53:17.736Z,24.17
2017-12-01T16:55:45.478Z,22.98
2017-12-01T16:58:13.121Z,22.80
2017-12-01T17:00:41.498Z,24.77
2017-12-01T17:03:09.167Z,23.35
2017-12-01T17:05:36.773Z,21.17
2017-12-01T17:08:05.162Z,18.27
2017-12-01T17:10:32.817Z,18.98
2017-12-01T17:13:00.450Z,21.02
2017-12-01T17:15:28.263Z,18.40
2017-12-01T17:17:56.650Z,20.10
2017-12-01T17:20:24.266Z,22.45
2017-12-01T17:22:51.921Z,18.83
2017-12-01T17:25:20.298Z,20.25
2017-12-01T17:27:48.933Z,19.10
2017-12-01T17:30:16.562Z,17.62
2017-12-01T17:32:44.198Z,21.62
2017-12-01T17:35:11.865Z,19.83
2017-12-01T17:37:39.531Z,18.20
2017-12-01T17:40:07.186Z,21.65
2017-12-01T17:42:34.798Z,22.42
2017-12-01T17:45:02.495Z,20.23
2017-12-01T17:47:30.928Z,19.23
2017-12-01T17:49:58.719Z,19.65
2017-12-01T17:52:26.648Z,17.12
2017-12-01T17:54:54.269Z,16.08
2017-12-01T17:57:22.830Z,16.23
2017-12-01T17:59:50.499Z,14.80
2017-12-01T18:02:18.133Z,15.93
2017-12-01T18:04:45.781Z,16.67
2017-12-01T18:07:13.422Z,16.08
2017-12-01T18:09:41.110Z,16.70
2017-12-01T18:12:08.793Z,18.75
2017-12-01T18:14:36.415Z,18.27
2017-12-01T18:17:04.069Z,17.58
2017-12-01T18:19:31.728Z,17.70
2017-12-01T18:22:02.926Z,17.62
2017-12-01T18:24:31.356Z,21.20
2017-12-01T18:26:58.981Z,17.80
2017-12-01T18:29:26.634Z,18.75
2017-12-01T18:31:54.290Z,23.60
2017-12-01T18:34:21.937Z,28.10
2017-12-01T18:36:49.658Z,26.17
2017-12-01T18:39:17.275Z,24.23
2017-12-01T18:41:44.930Z,24.52
2017-12-01T18:44:12.599Z,25.45
2017-12-01T18:46:40.226Z,22.75
2017-12-01T18:49:07.917Z,20.80
2017-12-01T18:51:35.561Z,21.48
2017-12-01T18:54:03.245Z,18.35
2017-12-01T18:56:31.671Z,24.17
2017-12-01T18:59:00.160Z,20.48
2017-12-01T19:01:28.927Z,22.02
2017-12-01T19:03:58.262Z,21.15
2017-12-01T19:06:31.693Z,23.02
2017-12-01T19:09:00.438Z,22.27
2017-12-01T19:11:28.211Z,21.95
2017-12-01T19:13:55.863Z,21.30
2017-12-01T19:16:23.521Z,22.08
2017-12-01T19:18:51.974Z,21.12
2017-12-01T19:21:19.732Z,20.92
2017-12-01T19:23:47.379Z,19.98
2017-12-01T19:26:15.030Z,16.15
2017-12-01T19:28:42.655Z,20.48
2017-12-01T19:31:10.311Z,19.62
2017-12-01T19:33:37.974Z,19.25
2017-12-01T19:36:05.593Z,16.80
2017-12-01T19:38:33.249Z,19.15
2017-12-01T19:41:00.879Z,17.08
2017-12-01T19:43:28.673Z,21.30
2017-12-01T19:45:56.295Z,22.92
2017-12-01T19:48:23.925Z,22.35
2017-12-01T19:50:51.580Z,21.27
2017-12-01T19:53:19.434Z,19.58
2017-12-01T19:55:47.091Z,19.87
2017-12-01T19:58:14.718Z,20.00
2017-12-01T20:00:42.334Z,20.67
2017-12-01T20:03:09.988Z,18.77
2017-12-01T20:05:38.039Z,21.17
2017-12-01T20:08:05.733Z,17.90
2017-12-01T20:10:33.372Z,19.30
2017-12-01T20:13:01.831Z,18.42
2017-12-01T20:15:30.135Z,22.05
2017-12-01T20:17:58.733Z,24.17
2017-12-01T20:20:26.377Z,19.95
2017-12-01T20:22:54.011Z,21.62
2017-12-01T20:25:21.659Z,23.27
2017-12-01T20:27:58.424Z,22.85
2017-12-01T20:30:26.095Z,20.90
2017-12-01T20:32:53.882Z,20.75
2017-12-01T20:35:23.246Z,20.02
2017-12-01T20:37:51.101Z,21.08
2017-12-01T20:40:18.785Z,21.15
2017-12-01T20:42:47.455Z,21.67
2017-12-01T20:45:15.892Z,21.37
2017-12-01T20:47:44.306Z,22.73
2017-12-01T20:50:12.183Z,23.73
2017-12-01T20:52:40.653Z,23.33
2017-12-01T20:55:08.402Z,19.17
2017-12-01T20:57:36.062Z,19.50
2017-12-01T21:00:03.682Z,18.90
2017-12-01T21:02:31.297Z,21.30
2017-12-01T21:04:59.821Z,18.25
2017-12-01T21:07:27.501Z,18.80
2017-12-01T21:09:55.933Z,22.73
2017-12-01T21:12:23.563Z,19.65
2017-12-01T21:14:51.187Z,17.70
2017-12-01T21:17:18.886Z,21.40
2017-12-01T21:19:46.501Z,18.02
2017-12-01T21:22:14.198Z,20.77
2017-12-01T21:24:41.820Z,20.77
2017-12-01T21:27:09.449Z,17.15
2017-12-01T21:29:37.102Z,18.30
2017-12-01T21:32:04.726Z,18.58
2017-12-01T21:34:32.378Z,25.02
2017-12-01T21:37:00.008Z,22.48
2017-12-01T21:39:27.670Z,24.08
2017-12-01T21:41:55.513Z,22.10
2017-12-01T21:44:23.159Z,22.67
2017-12-01T21:46:50.925Z,21.00
2017-12-01T21:49:18.754Z,18.45
2017-12-01T21:51:46.538Z,20.73
2017-12-01T21:54:14.195Z,20.30
2017-12-01T21:56:41.819Z,23.83
2017-12-01T21:59:09.575Z,20.12
2017-12-01T22:01:37.198Z,20.83
2017-12-01T22:04:04.826Z,21.58
2017-12-01T22:06:32.487Z,23.67
2017-12-01T22:09:00.114Z,21.40
2017-12-01T22:11:27.904Z,20.92
2017-12-01T22:13:55.547Z,20.65
2017-12-01T22:16:23.187Z,21.70
2017-12-01T22:18:50.851Z,20.55
2017-12-01T22:21:18.733Z,17.92
2017-12-01T22:23:47.185Z,21.30
2017-12-01T22:26:14.808Z,22.20
2017-12-01T22:28:42.446Z,22.40
2017-12-01T22:31:10.110Z,19.65
2017-12-01T22:33:37.857Z,21.73
2017-12-01T22:36:05.514Z,19.50
2017-12-01T22:38:33.138Z,21.55
2017-12-01T22:41:00.759Z,19.42
2017-12-01T22:43:28.498Z,18.77
2017-12-01T22:45:56.886Z,20.37
2017-12-01T22:48:24.554Z,22.08
2017-12-01T22:50:52.185Z,20.08
2017-12-01T22:53:19.934Z,21.83
2017-12-01T22:55:47.585Z,25.85
2017-12-01T22:58:15.211Z,20.45
2017-12-01T23:00:42.864Z,22.80
2017-12-01T23:03:10.493Z,20.80
2017-12-01T23:05:38.870Z,23.52
2017-12-01T23:08:06.537Z,23.80
2017-12-01T23:10:34.167Z,23.27
2017-12-01T23:13:01.824Z,22.37
2017-12-01T23:15:29.555Z,20.20
2017-12-01T23:17:57.173Z,23.08
2017-12-01T23:20:24.822Z,23.23
2017-12-01T23:22:52.444Z,25.50
2017-12-01T23:25:20.093Z,23.50
2017-12-01T23:27:47.852Z,19.87
2017-12-01T23:30:15.507Z,23.40
2017-12-01T23:32:43.162Z,23.20
2017-12-01T23:35:11.541Z,25.80
2017-12-01T23:37:39.413Z,23.08
2017-12-01T23:40:07.030Z,26.00
2017-12-01T23:42:35.423Z,21.65
2017-12-01T23:45:03.085Z,21.25
2017-12-01T23:47:30.716Z,21.10
2017-12-01T23:49:58.413Z,20.98
2017-12-01T23:52:26.050Z,19.48
2017-12-01T23:54:53.685Z,19.90
2017-12-01T23:57:21.342Z,21.33
2017-12-01T23:59:48.961Z,22.25
